sensor_id;sensor_type;location;lat;lon;timestamp;temperature;humidity
17891;DHT22;9071;48.220;14.480;2022-09-09T00:00:55;12.60;99.90
17891;DHT22;9071;48.220;14.480;2022-09-09T00:06:08;12.50;99.90
17891;DHT22;9071;48.220;14.480;2022-09-09T00:11:12;12.60;99.90
17891;DHT22;9071;48.220;14.480;2022-09-09T00:16:19;12.60;99.90
17891;DHT22;9071;48.220;14.480;2022-09-09T00:21:30;12.70;99.90
17891;DHT22;9071;48.220;14.480;2022-09-09T00:26:38;12.70;99.90
17891;DHT22;9071;48.220;14.480;2022-09-09T00:31:41;12.70;99.90
17891;DHT22;9071;48.220;14.480;2022-09-09T00:36:45;12.70;99.90
17891;DHT22;9071;48.220;14.480;2022-09-09T00:42:02;12.70;99.90
17891;DHT22;9071;48.220;14.480;2022-09-09T00:52:46;12.80;99.90
17891;DHT22;9071;48.220;14.480;2022-09-09T00:57:51;12.80;99.90
17891;DHT22;9071;48.220;14.480;2022-09-09T01:03:15;12.80;99.90
17891;DHT22;9071;48.220;14.480;2022-09-09T01:08:39;12.80;99.90
17891;DHT22;9071;48.220;14.480;2022-09-09T01:13:45;12.70;99.90
17891;DHT22;9071;48.220;14.480;2022-09-09T01:18:53;12.70;99.90
17891;DHT22;9071;48.220;14.480;2022-09-09T01:24:17;12.70;99.90
17891;DHT22;9071;48.220;14.480;2022-09-09T01:29:22;12.70;99.90
17891;DHT22;9071;48.220;14.480;2022-09-09T01:34:27;12.80;99.90
17891;DHT22;9071;48.220;14.480;2022-09-09T01:39:30;12.70;99.90
17891;DHT22;9071;48.220;14.480;2022-09-09T01:44:34;12.70;99.90
17891;DHT22;9071;48.220;14.480;2022-09-09T01:49:37;12.80;99.90
17891;DHT22;9071;48.220;14.480;2022-09-09T01:54:39;12.70;99.90
17891;DHT22;9071;48.220;14.480;2022-09-09T01:59:52;12.80;99.90
17891;DHT22;9071;48.220;14.480;2022-09-09T02:05:04;12.90;99.90
17891;DHT22;9071;48.220;14.480;2022-09-09T02:10:12;12.80;99.90
17891;DHT22;9071;48.220;14.480;2022-09-09T02:15:23;12.70;99.90
17891;DHT22;9071;48.220;14.480;2022-09-09T02:20:30;12.60;99.90
17891;DHT22;9071;48.220;14.480;2022-09-09T02:25:36;12.70;99.90
17891;DHT22;9071;48.220;14.480;2022-09-09T02:30:40;12.60;99.90
17891;DHT22;9071;48.220;14.480;2022-09-09T02:35:44;12.70;99.90
17891;DHT22;9071;48.220;14.480;2022-09-09T02:40:46;12.70;99.90
17891;DHT22;9071;48.220;14.480;2022-09-09T02:45:56;12.70;99.90
17891;DHT22;9071;48.220;14.480;2022-09-09T02:51:08;12.60;99.90
17891;DHT22;9071;48.220;14.480;2022-09-09T02:56:15;12.60;99.90
17891;DHT22;9071;48.220;14.480;2022-09-09T03:01:19;12.60;99.90
17891;DHT22;9071;48.220;14.480;2022-09-09T03:06:21;12.60;99.90
17891;DHT22;9071;48.220;14.480;2022-09-09T03:11:23;12.60;99.90
17891;DHT22;9071;48.220;14.480;2022-09-09T03:16:26;12.50;99.90
17891;DHT22;9071;48.220;14.480;2022-09-09T03:21:28;12.50;99.90
17891;DHT22;9071;48.220;14.480;2022-09-09T03:26:31;12.30;99.90
17891;DHT22;9071;48.220;14.480;2022-09-09T03:31:34;12.20;99.90
17891;DHT22;9071;48.220;14.480;2022-09-09T03:36:37;12.20;99.90
17891;DHT22;9071;48.220;14.480;2022-09-09T03:41:39;12.20;99.90
17891;DHT22;9071;48.220;14.480;2022-09-09T03:46:43;12.10;99.90
17891;DHT22;9071;48.220;14.480;2022-09-09T03:51:45;12.10;99.90
17891;DHT22;9071;48.220;14.480;2022-09-09T03:56:47;12.10;99.90
17891;DHT22;9071;48.220;14.480;2022-09-09T04:01:50;12.10;99.90
17891;DHT22;9071;48.220;14.480;2022-09-09T04:06:52;12.10;99.90
17891;DHT22;9071;48.220;14.480;2022-09-09T04:11:54;12.10;99.90
17891;DHT22;9071;48.220;14.480;2022-09-09T04:16:58;12.10;99.90
17891;DHT22;9071;48.220;14.480;2022-09-09T04:22:00;12.10;99.90
17891;DHT22;9071;48.220;14.480;2022-09-09T04:27:05;12.10;99.90
17891;DHT22;9071;48.220;14.480;2022-09-09T04:32:09;12.10;99.90
17891;DHT22;9071;48.220;14.480;2022-09-09T04:37:12;12.10;99.90
17891;DHT22;9071;48.220;14.480;2022-09-09T04:42:14;12.10;99.90
17891;DHT22;9071;48.220;14.480;2022-09-09T04:47:22;12.10;99.90
17891;DHT22;9071;48.220;14.480;2022-09-09T04:52:24;12.20;99.90
17891;DHT22;9071;48.220;14.480;2022-09-09T04:57:26;12.30;99.90
17891;DHT22;9071;48.220;14.480;2022-09-09T05:02:30;12.30;99.90
17891;DHT22;9071;48.220;14.480;2022-09-09T05:07:32;12.30;99.90
17891;DHT22;9071;48.220;14.480;2022-09-09T05:12:34;12.30;99.90
17891;DHT22;9071;48.220;14.480;2022-09-09T05:17:39;12.40;99.90
17891;DHT22;9071;48.220;14.480;2022-09-09T05:22:41;12.60;99.90
17891;DHT22;9071;48.220;14.480;2022-09-09T05:27:44;12.50;99.90
17891;DHT22;9071;48.220;14.480;2022-09-09T05:32:48;12.40;99.90
17891;DHT22;9071;48.220;14.480;2022-09-09T05:37:50;12.60;99.90
17891;DHT22;9071;48.220;14.480;2022-09-09T05:42:52;12.70;99.90
17891;DHT22;9071;48.220;14.480;2022-09-09T05:47:56;12.80;99.90
17891;DHT22;9071;48.220;14.480;2022-09-09T05:52:59;13.00;99.90
17891;DHT22;9071;48.220;14.480;2022-09-09T05:58:01;13.10;99.90
17891;DHT22;9071;48.220;14.480;2022-09-09T06:03:05;13.10;99.90
17891;DHT22;9071;48.220;14.480;2022-09-09T06:08:07;13.10;99.90
17891;DHT22;9071;48.220;14.480;2022-09-09T06:13:09;13.10;99.90
17891;DHT22;9071;48.220;14.480;2022-09-09T06:18:12;13.20;99.90
17891;DHT22;9071;48.220;14.480;2022-09-09T06:23:14;13.30;99.90
17891;DHT22;9071;48.220;14.480;2022-09-09T06:28:17;13.40;99.90
17891;DHT22;9071;48.220;14.480;2022-09-09T06:33:21;13.30;99.90
17891;DHT22;9071;48.220;14.480;2022-09-09T06:38:23;13.40;99.90
17891;DHT22;9071;48.220;14.480;2022-09-09T06:43:25;13.60;99.90
17891;DHT22;9071;48.220;14.480;2022-09-09T06:48:29;13.60;99.90
17891;DHT22;9071;48.220;14.480;2022-09-09T06:53:31;13.60;99.90
17891;DHT22;9071;48.220;14.480;2022-09-09T06:58:34;13.70;99.90
17891;DHT22;9071;48.220;14.480;2022-09-09T07:03:38;13.80;99.90
17891;DHT22;9071;48.220;14.480;2022-09-09T07:08:40;13.80;99.90
17891;DHT22;9071;48.220;14.480;2022-09-09T07:13:42;13.80;99.90
17891;DHT22;9071;48.220;14.480;2022-09-09T07:18:46;13.90;99.90
17891;DHT22;9071;48.220;14.480;2022-09-09T07:23:48;14.00;99.90
17891;DHT22;9071;48.220;14.480;2022-09-09T07:28:50;14.30;99.90
17891;DHT22;9071;48.220;14.480;2022-09-09T07:33:54;14.70;99.90
17891;DHT22;9071;48.220;14.480;2022-09-09T07:38:57;14.90;99.90
17891;DHT22;9071;48.220;14.480;2022-09-09T07:44:03;15.10;99.90
17891;DHT22;9071;48.220;14.480;2022-09-09T07:49:07;15.10;99.90
17891;DHT22;9071;48.220;14.480;2022-09-09T07:54:11;15.30;99.90
17891;DHT22;9071;48.220;14.480;2022-09-09T07:59:13;15.40;99.90
17891;DHT22;9071;48.220;14.480;2022-09-09T08:04:18;15.50;99.90
17891;DHT22;9071;48.220;14.480;2022-09-09T08:09:21;15.60;99.90
17891;DHT22;9071;48.220;14.480;2022-09-09T08:14:25;15.60;99.90
17891;DHT22;9071;48.220;14.480;2022-09-09T08:19:29;15.70;99.90
17891;DHT22;9071;48.220;14.480;2022-09-09T08:24:33;15.90;99.90
17891;DHT22;9071;48.220;14.480;2022-09-09T08:29:36;16.00;99.90
17891;DHT22;9071;48.220;14.480;2022-09-09T08:34:40;16.30;99.90
17891;DHT22;9071;48.220;14.480;2022-09-09T08:39:42;16.60;99.90
17891;DHT22;9071;48.220;14.480;2022-09-09T08:44:57;16.60;99.90
17891;DHT22;9071;48.220;14.480;2022-09-09T08:50:15;16.50;99.90
17891;DHT22;9071;48.220;14.480;2022-09-09T08:55:24;16.30;99.90
17891;DHT22;9071;48.220;14.480;2022-09-09T09:00:38;16.20;99.90
17891;DHT22;9071;48.220;14.480;2022-09-09T09:05:59;16.20;99.90
17891;DHT22;9071;48.220;14.480;2022-09-09T09:11:03;16.10;99.90
17891;DHT22;9071;48.220;14.480;2022-09-09T09:16:13;16.10;99.90
17891;DHT22;9071;48.220;14.480;2022-09-09T09:21:21;16.00;99.90
17891;DHT22;9071;48.220;14.480;2022-09-09T09:26:31;16.00;99.90
17891;DHT22;9071;48.220;14.480;2022-09-09T09:31:34;16.00;99.90
17891;DHT22;9071;48.220;14.480;2022-09-09T09:36:41;16.10;99.90
17891;DHT22;9071;48.220;14.480;2022-09-09T09:41:45;16.10;99.90
17891;DHT22;9071;48.220;14.480;2022-09-09T09:46:47;16.20;99.90
17891;DHT22;9071;48.220;14.480;2022-09-09T09:51:50;16.20;99.90
17891;DHT22;9071;48.220;14.480;2022-09-09T09:56:53;16.30;99.90
17891;DHT22;9071;48.220;14.480;2022-09-09T10:02:11;16.40;99.90
17891;DHT22;9071;48.220;14.480;2022-09-09T10:07:20;16.30;99.90
17891;DHT22;9071;48.220;14.480;2022-09-09T10:12:30;16.40;99.90
17891;DHT22;9071;48.220;14.480;2022-09-09T10:17:42;16.50;99.90
17891;DHT22;9071;48.220;14.480;2022-09-09T10:22:52;16.90;99.90
17891;DHT22;9071;48.220;14.480;2022-09-09T10:33:30;17.60;99.90
17891;DHT22;9071;48.220;14.480;2022-09-09T10:38:40;18.00;99.90
17891;DHT22;9071;48.220;14.480;2022-09-09T10:44:10;18.30;99.90
17891;DHT22;9071;48.220;14.480;2022-09-09T10:49:22;18.30;99.90
17891;DHT22;9071;48.220;14.480;2022-09-09T10:54:41;18.60;99.90
17891;DHT22;9071;48.220;14.480;2022-09-09T10:59:53;19.00;99.90
17891;DHT22;9071;48.220;14.480;2022-09-09T11:05:01;19.30;99.90
17891;DHT22;9071;48.220;14.480;2022-09-09T11:10:17;19.30;99.90
17891;DHT22;9071;48.220;14.480;2022-09-09T11:15:26;19.30;99.90
17891;DHT22;9071;48.220;14.480;2022-09-09T11:20:30;19.40;99.90
17891;DHT22;9071;48.220;14.480;2022-09-09T11:25:38;19.60;99.90
17891;DHT22;9071;48.220;14.480;2022-09-09T11:30:48;19.60;99.90
17891;DHT22;9071;48.220;14.480;2022-09-09T11:36:31;19.60;99.90
17891;DHT22;9071;48.220;14.480;2022-09-09T11:41:38;19.90;99.90
17891;DHT22;9071;48.220;14.480;2022-09-09T11:46:41;20.00;99.90
17891;DHT22;9071;48.220;14.480;2022-09-09T11:51:43;20.00;99.90
17891;DHT22;9071;48.220;14.480;2022-09-09T11:56:46;19.70;99.90
17891;DHT22;9071;48.220;14.480;2022-09-09T12:01:50;19.80;99.90
17891;DHT22;9071;48.220;14.480;2022-09-09T12:06:58;19.80;99.90
17891;DHT22;9071;48.220;14.480;2022-09-09T12:12:22;19.60;99.90
17891;DHT22;9071;48.220;14.480;2022-09-09T12:17:26;19.60;99.90
17891;DHT22;9071;48.220;14.480;2022-09-09T12:22:35;19.70;99.90
17891;DHT22;9071;48.220;14.480;2022-09-09T12:27:46;19.90;99.90
17891;DHT22;9071;48.220;14.480;2022-09-09T12:33:00;20.00;99.90
17891;DHT22;9071;48.220;14.480;2022-09-09T12:38:03;20.00;99.90
17891;DHT22;9071;48.220;14.480;2022-09-09T12:43:27;20.10;99.90
17891;DHT22;9071;48.220;14.480;2022-09-09T12:48:33;20.10;99.90
17891;DHT22;9071;48.220;14.480;2022-09-09T12:53:37;19.60;99.90
17891;DHT22;9071;48.220;14.480;2022-09-09T12:58:46;19.50;99.90
17891;DHT22;9071;48.220;14.480;2022-09-09T13:03:50;19.50;99.90
17891;DHT22;9071;48.220;14.480;2022-09-09T13:08:53;19.10;99.90
17891;DHT22;9071;48.220;14.480;2022-09-09T13:13:57;18.90;99.90
17891;DHT22;9071;48.220;14.480;2022-09-09T13:19:01;18.80;99.90
17891;DHT22;9071;48.220;14.480;2022-09-09T13:24:05;18.60;99.90
17891;DHT22;9071;48.220;14.480;2022-09-09T13:29:16;18.50;99.90
17891;DHT22;9071;48.220;14.480;2022-09-09T13:34:29;18.40;99.90
17891;DHT22;9071;48.220;14.480;2022-09-09T13:39:32;18.20;99.90
17891;DHT22;9071;48.220;14.480;2022-09-09T13:44:39;18.20;99.90
17891;DHT22;9071;48.220;14.480;2022-09-09T13:49:42;18.30;99.90
17891;DHT22;9071;48.220;14.480;2022-09-09T13:54:47;18.30;99.90
17891;DHT22;9071;48.220;14.480;2022-09-09T13:59:51;18.20;99.90
17891;DHT22;9071;48.220;14.480;2022-09-09T14:04:55;18.10;99.90
17891;DHT22;9071;48.220;14.480;2022-09-09T14:09:57;18.10;99.90
17891;DHT22;9071;48.220;14.480;2022-09-09T14:15:02;18.00;99.90
17891;DHT22;9071;48.220;14.480;2022-09-09T14:20:05;18.00;99.90
17891;DHT22;9071;48.220;14.480;2022-09-09T14:25:09;17.90;99.90
17891;DHT22;9071;48.220;14.480;2022-09-09T14:30:13;17.80;99.90
17891;DHT22;9071;48.220;14.480;2022-09-09T14:35:15;17.80;99.90
17891;DHT22;9071;48.220;14.480;2022-09-09T14:40:18;17.70;99.90
17891;DHT22;9071;48.220;14.480;2022-09-09T14:45:22;17.60;99.90
17891;DHT22;9071;48.220;14.480;2022-09-09T14:50:25;17.60;99.90
17891;DHT22;9071;48.220;14.480;2022-09-09T14:55:27;17.50;99.90
17891;DHT22;9071;48.220;14.480;2022-09-09T15:00:31;17.40;99.90
17891;DHT22;9071;48.220;14.480;2022-09-09T15:05:33;17.40;99.90
17891;DHT22;9071;48.220;14.480;2022-09-09T15:10:35;17.40;99.90
17891;DHT22;9071;48.220;14.480;2022-09-09T15:15:40;17.20;99.90
17891;DHT22;9071;48.220;14.480;2022-09-09T15:20:44;17.20;99.90
17891;DHT22;9071;48.220;14.480;2022-09-09T15:25:53;17.00;99.90
17891;DHT22;9071;48.220;14.480;2022-09-09T15:30:57;17.00;99.90
17891;DHT22;9071;48.220;14.480;2022-09-09T15:36:00;16.90;99.90
17891;DHT22;9071;48.220;14.480;2022-09-09T15:41:02;16.70;99.90
17891;DHT22;9071;48.220;14.480;2022-09-09T15:46:22;16.70;99.90
17891;DHT22;9071;48.220;14.480;2022-09-09T15:51:26;16.50;99.90
17891;DHT22;9071;48.220;14.480;2022-09-09T15:56:29;16.50;99.90
17891;DHT22;9071;48.220;14.480;2022-09-09T16:01:34;16.40;99.90
17891;DHT22;9071;48.220;14.480;2022-09-09T16:06:36;16.40;99.90
17891;DHT22;9071;48.220;14.480;2022-09-09T16:11:39;16.20;99.90
17891;DHT22;9071;48.220;14.480;2022-09-09T16:16:43;16.20;99.90
17891;DHT22;9071;48.220;14.480;2022-09-09T16:21:46;16.20;99.90
17891;DHT22;9071;48.220;14.480;2022-09-09T16:26:51;16.10;99.90
17891;DHT22;9071;48.220;14.480;2022-09-09T16:31:55;16.10;99.90
17891;DHT22;9071;48.220;14.480;2022-09-09T16:36:57;16.10;99.90
17891;DHT22;9071;48.220;14.480;2022-09-09T16:41:59;16.00;99.90
17891;DHT22;9071;48.220;14.480;2022-09-09T16:47:03;16.00;99.90
17891;DHT22;9071;48.220;14.480;2022-09-09T16:52:05;16.00;99.90
17891;DHT22;9071;48.220;14.480;2022-09-09T16:57:07;16.00;99.90
17891;DHT22;9071;48.220;14.480;2022-09-09T17:02:11;16.00;99.90
17891;DHT22;9071;48.220;14.480;2022-09-09T17:07:13;15.90;99.90
17891;DHT22;9071;48.220;14.480;2022-09-09T17:12:15;15.90;99.90
17891;DHT22;9071;48.220;14.480;2022-09-09T17:17:19;15.90;99.90
17891;DHT22;9071;48.220;14.480;2022-09-09T17:22:22;15.90;99.90
17891;DHT22;9071;48.220;14.480;2022-09-09T17:27:27;15.80;99.90
17891;DHT22;9071;48.220;14.480;2022-09-09T17:32:32;15.80;99.90
17891;DHT22;9071;48.220;14.480;2022-09-09T17:37:36;15.80;99.90
17891;DHT22;9071;48.220;14.480;2022-09-09T17:42:38;15.80;99.90
17891;DHT22;9071;48.220;14.480;2022-09-09T17:47:42;15.80;99.90
17891;DHT22;9071;48.220;14.480;2022-09-09T17:52:45;15.70;99.90
17891;DHT22;9071;48.220;14.480;2022-09-09T17:57:47;15.60;99.90
17891;DHT22;9071;48.220;14.480;2022-09-09T18:02:50;15.60;99.90
17891;DHT22;9071;48.220;14.480;2022-09-09T18:07:52;15.70;99.90
17891;DHT22;9071;48.220;14.480;2022-09-09T18:12:54;15.60;99.90
17891;DHT22;9071;48.220;14.480;2022-09-09T18:17:59;15.60;99.90
17891;DHT22;9071;48.220;14.480;2022-09-09T18:23:06;15.50;99.90
17891;DHT22;9071;48.220;14.480;2022-09-09T18:28:08;15.50;99.90
17891;DHT22;9071;48.220;14.480;2022-09-09T18:33:12;15.40;99.90
17891;DHT22;9071;48.220;14.480;2022-09-09T18:38:15;15.40;99.90
17891;DHT22;9071;48.220;14.480;2022-09-09T18:43:18;15.40;99.90
17891;DHT22;9071;48.220;14.480;2022-09-09T18:48:21;15.40;99.90
17891;DHT22;9071;48.220;14.480;2022-09-09T18:53:23;15.40;99.90
17891;DHT22;9071;48.220;14.480;2022-09-09T18:58:25;15.30;99.90
17891;DHT22;9071;48.220;14.480;2022-09-09T19:03:29;15.30;99.90
17891;DHT22;9071;48.220;14.480;2022-09-09T19:08:33;15.30;99.90
17891;DHT22;9071;48.220;14.480;2022-09-09T19:13:37;15.30;99.90
17891;DHT22;9071;48.220;14.480;2022-09-09T19:18:41;15.30;99.90
17891;DHT22;9071;48.220;14.480;2022-09-09T19:23:45;15.20;99.90
17891;DHT22;9071;48.220;14.480;2022-09-09T19:28:47;15.20;99.90
17891;DHT22;9071;48.220;14.480;2022-09-09T19:33:53;15.20;99.90
17891;DHT22;9071;48.220;14.480;2022-09-09T19:38:56;15.10;99.90
17891;DHT22;9071;48.220;14.480;2022-09-09T19:44:00;15.00;99.90
17891;DHT22;9071;48.220;14.480;2022-09-09T19:49:04;14.90;99.90
17891;DHT22;9071;48.220;14.480;2022-09-09T19:54:08;14.90;99.90
17891;DHT22;9071;48.220;14.480;2022-09-09T19:59:12;14.90;99.90
17891;DHT22;9071;48.220;14.480;2022-09-09T20:04:16;15.00;99.90
17891;DHT22;9071;48.220;14.480;2022-09-09T20:09:18;15.00;99.90
17891;DHT22;9071;48.220;14.480;2022-09-09T20:14:21;15.00;99.90
17891;DHT22;9071;48.220;14.480;2022-09-09T20:19:24;14.90;99.90
17891;DHT22;9071;48.220;14.480;2022-09-09T20:24:26;14.90;99.90
17891;DHT22;9071;48.220;14.480;2022-09-09T20:29:28;14.90;99.90
17891;DHT22;9071;48.220;14.480;2022-09-09T20:34:32;14.90;99.90
17891;DHT22;9071;48.220;14.480;2022-09-09T20:39:34;15.00;99.90
17891;DHT22;9071;48.220;14.480;2022-09-09T20:44:36;15.00;99.90
17891;DHT22;9071;48.220;14.480;2022-09-09T20:49:40;15.00;99.90
17891;DHT22;9071;48.220;14.480;2022-09-09T20:54:42;14.90;99.90
17891;DHT22;9071;48.220;14.480;2022-09-09T20:59:44;14.80;99.90
17891;DHT22;9071;48.220;14.480;2022-09-09T21:04:49;14.80;99.90
17891;DHT22;9071;48.220;14.480;2022-09-09T21:09:51;14.70;99.90
17891;DHT22;9071;48.220;14.480;2022-09-09T21:14:53;14.60;99.90
17891;DHT22;9071;48.220;14.480;2022-09-09T21:19:56;14.50;99.90
17891;DHT22;9071;48.220;14.480;2022-09-09T21:24:58;14.40;99.90
17891;DHT22;9071;48.220;14.480;2022-09-09T21:30:00;14.40;99.90
17891;DHT22;9071;48.220;14.480;2022-09-09T21:35:05;14.50;99.90
17891;DHT22;9071;48.220;14.480;2022-09-09T21:40:08;14.50;99.90
17891;DHT22;9071;48.220;14.480;2022-09-09T21:45:10;14.40;99.90
17891;DHT22;9071;48.220;14.480;2022-09-09T21:50:15;14.30;99.90
17891;DHT22;9071;48.220;14.480;2022-09-09T21:55:20;14.40;99.90
17891;DHT22;9071;48.220;14.480;2022-09-09T22:00:22;14.30;99.90
17891;DHT22;9071;48.220;14.480;2022-09-09T22:05:26;14.30;99.90
17891;DHT22;9071;48.220;14.480;2022-09-09T22:10:28;14.30;99.90
17891;DHT22;9071;48.220;14.480;2022-09-09T22:15:30;14.30;99.90
17891;DHT22;9071;48.220;14.480;2022-09-09T22:20:39;14.30;99.90
17891;DHT22;9071;48.220;14.480;2022-09-09T22:25:41;14.50;99.90
17891;DHT22;9071;48.220;14.480;2022-09-09T22:30:44;14.50;99.90
17891;DHT22;9071;48.220;14.480;2022-09-09T22:35:48;14.60;99.90
17891;DHT22;9071;48.220;14.480;2022-09-09T22:40:50;14.70;99.90
17891;DHT22;9071;48.220;14.480;2022-09-09T22:45:53;14.60;99.90
17891;DHT22;9071;48.220;14.480;2022-09-09T22:51:01;14.60;99.90
17891;DHT22;9071;48.220;14.480;2022-09-09T22:56:05;14.50;99.90
17891;DHT22;9071;48.220;14.480;2022-09-09T23:01:09;14.50;99.90
17891;DHT22;9071;48.220;14.480;2022-09-09T23:06:17;14.50;99.90
17891;DHT22;9071;48.220;14.480;2022-09-09T23:11:22;14.40;99.90
17891;DHT22;9071;48.220;14.480;2022-09-09T23:16:26;14.30;99.90
17891;DHT22;9071;48.220;14.480;2022-09-09T23:21:30;14.30;99.90
17891;DHT22;9071;48.220;14.480;2022-09-09T23:26:32;14.20;99.90
17891;DHT22;9071;48.220;14.480;2022-09-09T23:31:35;14.20;99.90
17891;DHT22;9071;48.220;14.480;2022-09-09T23:36:39;14.30;99.90
17891;DHT22;9071;48.220;14.480;2022-09-09T23:41:42;14.30;99.90
17891;DHT22;9071;48.220;14.480;2022-09-09T23:46:44;14.40;99.90
17891;DHT22;9071;48.220;14.480;2022-09-09T23:51:47;14.30;99.90
17891;DHT22;9071;48.220;14.480;2022-09-09T23:56:49;14.20;99.90
